createdAt,value
2018-09-06T00:01:01.225Z,10.47
2018-09-06T00:03:30.382Z,8.73
2018-09-06T00:05:59.569Z,9.10
2018-09-06T00:08:28.677Z,9.77
2018-09-06T00:10:57.802Z,9.20
2018-09-06T00:13:26.880Z,8.90
2018-09-06T00:15:56.213Z,10.43
2018-09-06T00:18:25.429Z,9.63
2018-09-06T00:20:54.435Z,8.90
2018-09-06T00:23:24.333Z,9.20
2018-09-06T00:25:53.684Z,9.93
2018-09-06T00:28:22.860Z,10.37
2018-09-06T00:30:51.990Z,9.20
2018-09-06T00:33:21.691Z,9.60
2018-09-06T00:35:51.400Z,9.67
2018-09-06T00:38:21.068Z,10.10
2018-09-06T00:40:50.388Z,9.70
2018-09-06T00:43:19.588Z,9.33
2018-09-06T00:45:48.894Z,9.73
2018-09-06T00:48:18.209Z,9.40
2018-09-06T00:50:47.682Z,9.50
2018-09-06T00:53:16.716Z,9.30
2018-09-06T00:55:46.038Z,9.73
2018-09-06T00:58:15.247Z,9.20
2018-09-06T01:00:44.649Z,10.63
2018-09-06T01:03:14.186Z,9.97
2018-09-06T01:05:43.255Z,10.33
2018-09-06T01:08:12.889Z,10.30
2018-09-06T01:10:42.056Z,10.47
2018-09-06T01:13:11.152Z,10.10
2018-09-06T01:15:40.652Z,10.20
2018-09-06T01:18:09.895Z,10.50
2018-09-06T01:20:38.949Z,10.50
2018-09-06T01:23:08.223Z,9.63
2018-09-06T01:25:42.430Z,9.70
2018-09-06T01:28:11.610Z,10.20
2018-09-06T01:30:40.794Z,9.73
2018-09-06T01:33:09.991Z,9.33
2018-09-06T01:35:43.083Z,11.20
2018-09-06T01:38:12.044Z,10.70
2018-09-06T01:40:41.084Z,9.73
2018-09-06T01:43:10.288Z,10.50
2018-09-06T01:45:39.421Z,9.60
2018-09-06T01:48:09.084Z,9.90
2018-09-06T01:50:38.844Z,10.30
2018-09-06T01:53:08.160Z,10.23
2018-09-06T01:55:37.171Z,10.00
2018-09-06T01:58:06.267Z,10.10
2018-09-06T02:00:35.636Z,10.17
2018-09-06T02:03:04.728Z,10.20
2018-09-06T02:05:37.531Z,10.97
2018-09-06T02:08:07.999Z,9.30
2018-09-06T02:10:37.289Z,9.97
2018-09-06T02:13:07.398Z,10.13
2018-09-06T02:15:36.621Z,10.53
2018-09-06T02:18:05.970Z,11.10
2018-09-06T02:20:35.292Z,11.27
2018-09-06T02:23:04.941Z,10.37
2018-09-06T02:25:34.223Z,10.73
2018-09-06T02:28:04.552Z,10.53
2018-09-06T02:30:33.571Z,10.63
2018-09-06T02:33:02.795Z,10.67
2018-09-06T02:35:31.984Z,10.23
2018-09-06T02:38:01.151Z,9.93
2018-09-06T02:40:35.365Z,10.57
2018-09-06T02:43:04.703Z,11.00
2018-09-06T02:45:34.037Z,10.67
2018-09-06T02:48:03.255Z,10.53
2018-09-06T02:50:37.753Z,10.07
2018-09-06T02:53:07.464Z,11.03
2018-09-06T02:55:36.587Z,11.20
2018-09-06T02:58:06.243Z,11.17
2018-09-06T03:00:36.841Z,11.33
2018-09-06T03:03:05.841Z,10.87
2018-09-06T03:05:34.799Z,10.80
2018-09-06T03:08:03.742Z,10.50
2018-09-06T03:10:42.183Z,11.10
2018-09-06T03:13:11.412Z,11.30
2018-09-06T03:15:40.732Z,9.90
2018-09-06T03:18:09.689Z,11.37
2018-09-06T03:20:38.649Z,10.93
2018-09-06T03:23:07.800Z,10.77
2018-09-06T03:25:37.178Z,11.23
2018-09-06T03:28:09.183Z,10.50
2018-09-06T03:30:38.138Z,10.80
2018-09-06T03:33:07.248Z,11.33
2018-09-06T03:35:36.461Z,10.97
2018-09-06T03:38:05.640Z,10.30
2018-09-06T03:40:35.039Z,10.73
2018-09-06T03:43:04.101Z,10.73
2018-09-06T03:45:33.190Z,11.30
2018-09-06T03:48:02.266Z,11.33
2018-09-06T03:50:31.424Z,10.13
2018-09-06T03:53:00.655Z,10.37
2018-09-06T03:55:30.198Z,11.57
2018-09-06T03:57:59.655Z,11.13
2018-09-06T04:00:28.707Z,11.70
2018-09-06T04:02:58.098Z,10.63
2018-09-06T04:05:27.488Z,11.10
2018-09-06T04:07:56.832Z,11.43
2018-09-06T04:10:25.975Z,11.63
2018-09-06T04:12:55.197Z,11.53
2018-09-06T04:15:24.532Z,12.47
2018-09-06T04:17:53.651Z,12.13
2018-09-06T04:20:22.820Z,11.87
2018-09-06T04:22:52.804Z,12.20
2018-09-06T04:25:22.116Z,11.90
2018-09-06T04:27:51.378Z,11.60
2018-09-06T04:30:20.455Z,11.63
2018-09-06T04:32:49.800Z,13.00
2018-09-06T04:35:19.113Z,10.90
2018-09-06T04:37:48.394Z,11.50
2018-09-06T04:40:17.602Z,11.70
2018-09-06T04:42:47.051Z,11.47
2018-09-06T04:45:16.093Z,12.17
2018-09-06T04:47:45.012Z,12.50
2018-09-06T04:50:14.514Z,11.43
2018-09-06T04:52:43.651Z,11.43
2018-09-06T04:55:13.240Z,12.27
2018-09-06T04:57:43.368Z,12.57
2018-09-06T05:00:12.336Z,12.00
2018-09-06T05:02:41.381Z,13.33
2018-09-06T05:05:10.567Z,12.37
2018-09-06T05:07:39.640Z,12.43
2018-09-06T05:10:09.122Z,12.57
2018-09-06T05:12:38.235Z,12.20
2018-09-06T05:15:07.269Z,12.37
2018-09-06T05:17:37.954Z,12.27
2018-09-06T05:20:07.353Z,13.00
2018-09-06T05:22:36.653Z,12.67
2018-09-06T05:25:06.124Z,12.17
2018-09-06T05:27:35.131Z,12.47
2018-09-06T05:30:04.245Z,12.83
2018-09-06T05:32:33.230Z,12.23
2018-09-06T05:35:02.136Z,13.53
2018-09-06T05:37:31.514Z,15.90
2018-09-06T05:40:00.829Z,13.37
2018-09-06T05:42:30.084Z,13.60
2018-09-06T05:44:59.257Z,13.57
2018-09-06T05:47:28.597Z,12.80
2018-09-06T05:49:58.586Z,14.00
2018-09-06T05:52:27.847Z,12.60
2018-09-06T05:54:57.535Z,12.97
2018-09-06T05:57:26.765Z,13.20
2018-09-06T05:59:55.782Z,13.10
2018-09-06T06:02:24.987Z,14.53
2018-09-06T06:04:54.572Z,13.50
2018-09-06T06:07:29.323Z,13.80
2018-09-06T06:09:58.890Z,14.63
2018-09-06T06:12:28.882Z,14.33
2018-09-06T06:14:58.264Z,15.23
2018-09-06T06:17:27.721Z,14.20
2018-09-06T06:19:56.901Z,14.23
2018-09-06T06:22:26.399Z,14.03
2018-09-06T06:24:55.579Z,15.53
2018-09-06T06:27:24.743Z,14.43
2018-09-06T06:29:54.252Z,15.17
2018-09-06T06:32:23.660Z,14.90
2018-09-06T06:34:53.789Z,14.10
2018-09-06T06:37:23.291Z,13.53
2018-09-06T06:39:52.376Z,13.50
2018-09-06T06:42:22.371Z,12.73
2018-09-06T06:44:51.594Z,11.40
2018-09-06T06:47:21.581Z,12.27
2018-09-06T06:49:50.680Z,11.20
2018-09-06T06:52:19.937Z,11.53
2018-09-06T06:54:49.175Z,12.17
2018-09-06T06:57:18.221Z,10.70
2018-09-06T06:59:47.465Z,12.10
2018-09-06T07:02:16.428Z,12.13
2018-09-06T07:04:45.599Z,12.90
2018-09-06T07:07:15.305Z,11.93
2018-09-06T07:09:44.567Z,11.43
2018-09-06T07:12:13.588Z,11.27
2018-09-06T07:14:42.680Z,11.90
2018-09-06T07:17:12.979Z,11.30
2018-09-06T07:19:42.450Z,11.20
2018-09-06T07:22:12.519Z,12.20
2018-09-06T07:24:41.581Z,11.47
2018-09-06T07:27:10.578Z,11.20
2018-09-06T07:29:40.025Z,10.50
2018-09-06T07:32:09.982Z,11.10
2018-09-06T07:34:39.122Z,10.53
2018-09-06T07:37:08.140Z,10.40
2018-09-06T07:39:37.502Z,11.13
2018-09-06T07:42:06.424Z,10.13
2018-09-06T07:44:35.461Z,9.87
2018-09-06T07:47:05.373Z,11.30
2018-09-06T07:49:34.709Z,11.53
2018-09-06T07:52:03.913Z,10.57
2018-09-06T07:54:33.214Z,10.83
2018-09-06T07:57:03.763Z,11.20
2018-09-06T07:59:33.195Z,10.63
2018-09-06T08:02:02.695Z,10.47
2018-09-06T08:04:31.978Z,10.50
2018-09-06T08:07:00.991Z,10.70
2018-09-06T08:09:30.980Z,10.53
2018-09-06T08:11:59.984Z,10.07
2018-09-06T08:14:29.381Z,9.80
2018-09-06T08:16:59.165Z,9.37
2018-09-06T08:19:28.420Z,9.17
2018-09-06T08:21:57.614Z,8.83
2018-09-06T08:24:27.003Z,8.77
2018-09-06T08:26:56.487Z,8.93
2018-09-06T08:29:25.520Z,9.70
2018-09-06T08:31:54.797Z,7.97
2018-09-06T08:34:24.133Z,8.90
2018-09-06T08:36:54.269Z,10.73
2018-09-06T08:39:23.635Z,9.60
2018-09-06T08:41:53.495Z,9.80
2018-09-06T08:44:22.732Z,9.30
2018-09-06T08:46:52.107Z,9.20
2018-09-06T08:49:21.693Z,9.10
2018-09-06T08:51:50.746Z,9.00
2018-09-06T08:54:20.114Z,9.67
2018-09-06T08:56:49.361Z,9.70
2018-09-06T08:59:18.660Z,9.53
2018-09-06T09:01:47.913Z,8.70
2018-09-06T09:04:16.938Z,9.67
2018-09-06T09:06:45.995Z,9.77
2018-09-06T09:09:16.053Z,9.63
2018-09-06T09:11:45.367Z,8.83
2018-09-06T09:14:14.655Z,9.73
2018-09-06T09:16:43.859Z,9.03
2018-09-06T09:19:12.963Z,9.00
2018-09-06T09:21:42.205Z,10.00
2018-09-06T09:24:11.487Z,8.43
2018-09-06T09:26:41.179Z,7.37
2018-09-06T09:29:10.365Z,8.90
2018-09-06T09:31:39.403Z,7.93
2018-09-06T09:34:08.983Z,7.83
2018-09-06T09:36:38.236Z,7.77
2018-09-06T09:39:09.912Z,7.60
2018-09-06T09:41:39.151Z,7.63
2018-09-06T09:44:08.218Z,8.97
2018-09-06T09:49:05.450Z,8.27
2018-09-06T09:51:34.332Z,7.97
2018-09-06T09:54:03.470Z,8.13
2018-09-06T09:56:32.453Z,8.67
2018-09-06T09:59:02.461Z,7.07
2018-09-06T10:01:36.604Z,7.73
2018-09-06T10:04:10.674Z,8.73
2018-09-06T10:06:44.930Z,8.00
2018-09-06T10:09:19.266Z,7.10
2018-09-06T10:11:48.768Z,8.37
2018-09-06T10:14:17.783Z,7.40
2018-09-06T10:16:47.482Z,7.93
2018-09-06T10:19:17.140Z,6.90
2018-09-06T10:21:46.973Z,8.27
2018-09-06T10:24:16.608Z,7.50
2018-09-06T10:26:45.910Z,8.97
2018-09-06T10:29:15.280Z,8.60
2018-09-06T10:31:44.471Z,8.90
2018-09-06T10:34:14.014Z,7.40
2018-09-06T10:36:43.314Z,8.43
2018-09-06T10:39:12.377Z,8.83
2018-09-06T10:41:42.480Z,8.30
2018-09-06T10:44:11.679Z,8.20
2018-09-06T10:46:40.876Z,8.27
2018-09-06T10:49:09.898Z,8.70
2018-09-06T10:51:39.339Z,8.17
2018-09-06T10:54:08.801Z,7.87
2018-09-06T10:56:37.917Z,7.87
2018-09-06T10:59:07.482Z,7.27
2018-09-06T11:01:36.608Z,7.87
2018-09-06T11:04:05.656Z,7.73
2018-09-06T11:06:34.668Z,8.13
2018-09-06T11:09:03.993Z,8.37
2018-09-06T11:11:33.352Z,8.00
2018-09-06T11:14:02.371Z,7.70
2018-09-06T11:16:31.782Z,8.17
2018-09-06T11:19:00.978Z,8.60
2018-09-06T11:21:30.212Z,7.93
2018-09-06T11:24:00.422Z,7.53
2018-09-06T11:26:29.683Z,7.30
2018-09-06T11:28:59.099Z,7.50
2018-09-06T11:31:28.075Z,8.17
2018-09-06T11:33:57.466Z,7.80
2018-09-06T11:36:26.526Z,7.73
2018-09-06T11:38:55.787Z,7.60
2018-09-06T11:41:24.939Z,7.97
2018-09-06T11:43:54.013Z,8.30
2018-09-06T11:46:23.304Z,8.10
2018-09-06T11:48:52.574Z,8.13
2018-09-06T11:51:21.709Z,7.63
2018-09-06T11:53:50.966Z,8.10
2018-09-06T11:56:20.063Z,7.80
2018-09-06T11:58:50.170Z,8.30
2018-09-06T12:01:19.652Z,8.00
2018-09-06T12:03:49.148Z,7.70
2018-09-06T12:06:18.900Z,8.07
2018-09-06T12:08:48.559Z,7.10
2018-09-06T12:11:17.655Z,8.20
2018-09-06T12:13:46.616Z,6.50
2018-09-06T12:16:15.732Z,7.93
2018-09-06T12:18:44.828Z,7.90
2018-09-06T12:21:14.416Z,7.50
2018-09-06T12:23:44.651Z,6.63
2018-09-06T12:26:13.946Z,6.70
2018-09-06T12:28:43.002Z,7.13
2018-09-06T12:31:15.272Z,8.17
2018-09-06T12:33:44.596Z,7.50
2018-09-06T12:36:13.910Z,7.90
2018-09-06T12:38:43.086Z,7.20
2018-09-06T12:41:12.963Z,7.47
2018-09-06T12:43:42.967Z,8.70
2018-09-06T12:46:13.045Z,6.93
2018-09-06T12:48:42.416Z,7.30
2018-09-06T12:51:13.504Z,7.37
2018-09-06T12:53:42.489Z,6.77
2018-09-06T12:56:11.826Z,7.20
2018-09-06T12:58:40.923Z,7.80
2018-09-06T13:01:12.283Z,8.03
2018-09-06T13:03:41.820Z,8.17
2018-09-06T13:06:10.900Z,7.83
2018-09-06T13:08:40.529Z,8.33
2018-09-06T13:11:09.761Z,7.57
2018-09-06T13:13:38.872Z,7.93
2018-09-06T13:16:08.673Z,7.30
2018-09-06T13:18:38.367Z,7.70
2018-09-06T13:21:07.585Z,8.10
2018-09-06T13:23:36.693Z,8.57
2018-09-06T13:26:06.356Z,8.27
2018-09-06T13:28:35.462Z,7.70
2018-09-06T13:31:04.541Z,7.63
2018-09-06T13:33:34.704Z,8.70
2018-09-06T13:36:04.111Z,6.50
2018-09-06T13:38:33.073Z,7.90
2018-09-06T13:41:02.723Z,7.80
2018-09-06T13:43:31.903Z,7.70
2018-09-06T13:46:01.229Z,7.00
2018-09-06T13:48:30.437Z,7.53
2018-09-06T13:51:00.323Z,6.17
2018-09-06T13:53:29.389Z,7.50
2018-09-06T13:55:58.469Z,8.00
2018-09-06T13:58:28.074Z,7.97
2018-09-06T14:00:57.500Z,8.20
2018-09-06T14:03:26.833Z,7.07
2018-09-06T14:05:56.483Z,7.60
2018-09-06T14:08:26.069Z,7.90
2018-09-06T14:10:55.365Z,6.63
2018-09-06T14:13:24.543Z,6.30
2018-09-06T14:15:53.480Z,7.67
2018-09-06T14:18:22.708Z,7.27
2018-09-06T14:20:51.774Z,7.20
2018-09-06T14:23:21.254Z,6.90
2018-09-06T14:25:50.505Z,6.83
2018-09-06T14:28:19.706Z,7.20
2018-09-06T14:30:48.853Z,6.43
2018-09-06T14:33:18.786Z,7.10
2018-09-06T14:35:47.883Z,7.07
2018-09-06T14:38:16.956Z,7.23
2018-09-06T14:40:46.190Z,7.57
2018-09-06T14:43:15.636Z,7.27
2018-09-06T14:45:44.812Z,6.70
2018-09-06T14:48:14.233Z,6.83
2018-09-06T14:50:43.544Z,7.50
2018-09-06T14:53:13.204Z,7.80
2018-09-06T14:55:42.291Z,7.30
2018-09-06T14:58:11.435Z,6.47
2018-09-06T15:00:41.048Z,6.50
2018-09-06T15:03:10.445Z,7.13
2018-09-06T15:05:39.742Z,6.13
2018-09-06T15:08:09.087Z,6.10
2018-09-06T15:10:38.398Z,6.70
2018-09-06T15:13:07.876Z,6.87
2018-09-06T15:15:36.839Z,6.93
2018-09-06T15:18:06.125Z,6.60
2018-09-06T15:20:35.343Z,7.00
2018-09-06T15:23:04.572Z,6.47
2018-09-06T15:25:33.701Z,8.40
2018-09-06T15:28:02.748Z,7.40
2018-09-06T15:30:32.234Z,7.23
2018-09-06T15:33:01.471Z,6.60
2018-09-06T15:35:30.813Z,5.63
2018-09-06T15:38:00.233Z,6.53
2018-09-06T15:40:29.373Z,5.90
2018-09-06T15:42:58.434Z,6.50
2018-09-06T15:45:28.335Z,6.43
2018-09-06T15:47:57.651Z,6.53
2018-09-06T15:50:26.967Z,7.33
2018-09-06T15:52:55.983Z,6.43
2018-09-06T15:55:25.278Z,6.87
2018-09-06T15:57:54.256Z,6.47
2018-09-06T16:00:23.332Z,6.40
2018-09-06T16:02:52.852Z,6.03
2018-09-06T16:05:21.865Z,6.10
2018-09-06T16:07:51.112Z,7.00
2018-09-06T16:10:20.561Z,7.80
2018-09-06T16:12:49.971Z,7.30
2018-09-06T16:15:19.288Z,7.60
2018-09-06T16:17:48.299Z,7.37
2018-09-06T16:20:17.828Z,7.50
2018-09-06T16:22:47.239Z,6.57
2018-09-06T16:25:16.568Z,6.53
2018-09-06T16:27:46.046Z,6.67
2018-09-06T16:30:15.510Z,6.40
2018-09-06T16:32:45.198Z,6.73
2018-09-06T16:35:17.552Z,6.53
2018-09-06T16:37:46.688Z,6.73
2018-09-06T16:40:15.924Z,7.03
2018-09-06T16:42:45.303Z,6.47
2018-09-06T16:45:14.512Z,6.93
2018-09-06T16:47:43.722Z,6.57
2018-09-06T16:50:12.843Z,6.60
2018-09-06T16:52:41.855Z,6.83
2018-09-06T16:55:11.351Z,6.80
2018-09-06T16:57:41.392Z,7.33
2018-09-06T17:00:10.874Z,7.70
2018-09-06T17:02:39.995Z,6.87
2018-09-06T17:05:09.474Z,14.30
2018-09-06T17:07:38.675Z,8.07
2018-09-06T17:10:07.852Z,8.07
2018-09-06T17:12:37.650Z,7.50
2018-09-06T17:15:06.856Z,7.83
2018-09-06T17:17:36.219Z,7.60
2018-09-06T17:20:05.524Z,7.80
2018-09-06T17:22:34.631Z,7.83
2018-09-06T17:25:03.623Z,8.47
2018-09-06T17:27:33.170Z,9.27
2018-09-06T17:30:03.947Z,8.47
2018-09-06T17:32:33.318Z,8.20
2018-09-06T17:35:02.735Z,8.40
2018-09-06T17:37:32.084Z,9.07
2018-09-06T17:40:01.412Z,8.40
2018-09-06T17:42:31.759Z,10.90
2018-09-06T17:45:00.916Z,10.63
2018-09-06T17:47:30.331Z,8.87
2018-09-06T17:49:59.467Z,9.60
2018-09-06T17:52:28.556Z,9.50
2018-09-06T17:54:57.650Z,9.57
2018-09-06T17:57:26.900Z,9.40
2018-09-06T17:59:56.231Z,8.53
2018-09-06T18:02:25.878Z,8.73
2018-09-06T18:04:55.400Z,9.50
2018-09-06T18:07:24.802Z,8.20
2018-09-06T18:09:53.896Z,9.87
2018-09-06T18:12:22.953Z,9.17
2018-09-06T18:14:53.149Z,9.00
2018-09-06T18:17:22.229Z,9.83
2018-09-06T18:19:51.690Z,9.30
2018-09-06T18:22:20.885Z,9.20
2018-09-06T18:24:49.984Z,9.70
2018-09-06T18:27:19.365Z,13.80
2018-09-06T18:29:48.539Z,12.17
2018-09-06T18:32:17.980Z,10.00
2018-09-06T18:34:47.080Z,9.83
2018-09-06T18:37:16.342Z,9.80
2018-09-06T18:39:45.513Z,10.47
2018-09-06T18:42:14.735Z,10.47
2018-09-06T18:44:44.063Z,10.50
2018-09-06T18:47:13.268Z,10.53
2018-09-06T18:49:42.627Z,11.43
2018-09-06T18:52:11.735Z,11.70
2018-09-06T18:54:40.954Z,11.00
2018-09-06T18:57:10.495Z,10.77
2018-09-06T18:59:40.071Z,10.40
2018-09-06T19:02:09.776Z,10.47
2018-09-06T19:04:38.967Z,11.10
2018-09-06T19:07:08.092Z,11.50
2018-09-06T19:09:37.601Z,11.37
2018-09-06T19:12:07.384Z,12.10
2018-09-06T19:14:36.645Z,11.60
2018-09-06T19:17:06.032Z,10.63
2018-09-06T19:19:35.784Z,10.57
2018-09-06T19:22:05.141Z,9.80
2018-09-06T19:24:34.458Z,11.00
2018-09-06T19:27:03.717Z,10.20
2018-09-06T19:29:32.803Z,10.07
2018-09-06T19:32:02.117Z,10.80
2018-09-06T19:34:31.618Z,10.93
2018-09-06T19:37:01.285Z,10.20
2018-09-06T19:39:30.700Z,10.13
2018-09-06T19:41:59.802Z,10.47
2018-09-06T19:44:29.158Z,10.67
2018-09-06T19:46:58.410Z,10.40
2018-09-06T19:49:27.873Z,10.93
2018-09-06T19:51:56.919Z,10.83
2018-09-06T19:54:26.039Z,10.97
2018-09-06T19:56:55.518Z,11.90
2018-09-06T19:59:24.555Z,10.10
2018-09-06T20:01:53.937Z,10.00
2018-09-06T20:04:23.264Z,10.47
2018-09-06T20:06:52.467Z,10.40
2018-09-06T20:09:21.655Z,10.50
2018-09-06T20:11:50.786Z,9.97
2018-09-06T20:14:20.593Z,9.90
2018-09-06T20:16:50.170Z,9.33
2018-09-06T20:19:19.424Z,10.87
2018-09-06T20:21:48.708Z,10.50
2018-09-06T20:24:17.798Z,10.50
2018-09-06T20:26:46.946Z,9.60
2018-09-06T20:29:16.492Z,10.00
2018-09-06T20:31:45.570Z,9.73
2018-09-06T20:34:15.106Z,11.30
2018-09-06T20:36:44.373Z,9.93
2018-09-06T20:39:13.380Z,10.10
2018-09-06T20:41:42.608Z,10.50
2018-09-06T20:44:12.083Z,10.10
2018-09-06T20:46:41.305Z,9.90
2018-09-06T20:49:10.786Z,9.97
2018-09-06T20:51:39.854Z,10.57
2018-09-06T20:54:09.127Z,10.60
2018-09-06T20:56:38.250Z,10.20
2018-09-06T20:59:07.626Z,9.80
2018-09-06T21:01:36.875Z,9.70
2018-09-06T21:04:05.942Z,10.83
2018-09-06T21:06:35.360Z,11.53
2018-09-06T21:09:05.738Z,10.57
2018-09-06T21:11:34.769Z,11.20
2018-09-06T21:14:03.825Z,9.80
2018-09-06T21:16:33.237Z,10.73
2018-09-06T21:19:02.606Z,10.90
2018-09-06T21:21:31.806Z,10.23
2018-09-06T21:24:01.587Z,10.50
2018-09-06T21:26:30.955Z,10.60
2018-09-06T21:29:00.015Z,11.53
2018-09-06T21:31:29.961Z,14.33
2018-09-06T21:33:59.908Z,12.57
2018-09-06T21:36:29.027Z,11.60
2018-09-06T21:38:58.165Z,13.10
2018-09-06T21:41:27.473Z,11.93
2018-09-06T21:43:56.856Z,12.43
2018-09-06T21:46:26.709Z,11.77
2018-09-06T21:48:55.715Z,11.07
2018-09-06T21:51:25.001Z,12.13
2018-09-06T21:53:54.114Z,11.00
2018-09-06T21:56:23.270Z,11.30
2018-09-06T21:58:52.398Z,10.80
2018-09-06T22:01:21.514Z,11.40
2018-09-06T22:03:55.761Z,12.03
2018-09-06T22:06:25.190Z,11.63
2018-09-06T22:08:54.281Z,11.53
2018-09-06T22:11:23.794Z,12.67
2018-09-06T22:13:53.373Z,11.10
2018-09-06T22:16:22.922Z,11.83
2018-09-06T22:18:51.916Z,10.90
2018-09-06T22:21:21.210Z,12.33
2018-09-06T22:23:50.729Z,11.60
2018-09-06T22:26:19.973Z,11.43
2018-09-06T22:28:49.169Z,11.17
2018-09-06T22:31:18.561Z,12.17
2018-09-06T22:33:47.778Z,12.10
2018-09-06T22:36:16.719Z,11.20
2018-09-06T22:38:45.788Z,11.40
2018-09-06T22:41:14.834Z,12.13
2018-09-06T22:43:44.681Z,12.80
2018-09-06T22:46:14.214Z,11.90
2018-09-06T22:48:43.643Z,12.40
2018-09-06T22:51:13.625Z,12.37
2018-09-06T22:53:42.624Z,11.40
2018-09-06T22:56:12.251Z,12.93
2018-09-06T22:58:41.659Z,12.73
2018-09-06T23:01:10.850Z,12.37
2018-09-06T23:03:41.826Z,13.50
2018-09-06T23:06:10.995Z,12.50
2018-09-06T23:08:40.213Z,12.17
2018-09-06T23:11:09.452Z,12.00
2018-09-06T23:13:38.636Z,12.27
2018-09-06T23:16:07.862Z,12.50
2018-09-06T23:18:36.978Z,12.90
2018-09-06T23:21:06.302Z,12.43
2018-09-06T23:23:35.966Z,11.80
2018-09-06T23:26:05.355Z,12.50
2018-09-06T23:28:34.522Z,12.30
2018-09-06T23:31:03.785Z,11.60
2018-09-06T23:33:33.083Z,13.20
2018-09-06T23:36:02.374Z,13.30
2018-09-06T23:38:32.084Z,12.00
2018-09-06T23:41:01.317Z,12.87
2018-09-06T23:43:31.691Z,12.40
2018-09-06T23:46:01.039Z,13.23
2018-09-06T23:48:30.655Z,11.93
2018-09-06T23:51:00.641Z,12.90
2018-09-06T23:53:29.702Z,13.20
2018-09-06T23:55:58.824Z,12.63
2018-09-06T23:58:28.311Z,12.50
